sensor_id;sensor_type;location;lat;lon;timestamp;temperature;humidity
5868;DHT22;2960;49.142;7.768;2022-08-19T00:00:38;21.30;77.40
5868;DHT22;2960;49.142;7.768;2022-08-19T00:03:06;21.30;77.40
5868;DHT22;2960;49.142;7.768;2022-08-19T00:05:34;21.30;77.40
5868;DHT22;2960;49.142;7.768;2022-08-19T00:08:02;21.30;77.40
5868;DHT22;2960;49.142;7.768;2022-08-19T00:10:29;21.30;77.40
5868;DHT22;2960;49.142;7.768;2022-08-19T00:12:57;21.30;77.40
5868;DHT22;2960;49.142;7.768;2022-08-19T00:15:24;21.30;77.50
5868;DHT22;2960;49.142;7.768;2022-08-19T00:21:27;21.30;77.60
5868;DHT22;2960;49.142;7.768;2022-08-19T00:23:55;21.20;77.60
5868;DHT22;2960;49.142;7.768;2022-08-19T00:26:24;21.20;77.60
5868;DHT22;2960;49.142;7.768;2022-08-19T00:28:51;21.20;77.60
5868;DHT22;2960;49.142;7.768;2022-08-19T00:31:18;21.20;77.60
5868;DHT22;2960;49.142;7.768;2022-08-19T00:33:46;21.20;77.60
5868;DHT22;2960;49.142;7.768;2022-08-19T00:36:14;21.20;77.70
5868;DHT22;2960;49.142;7.768;2022-08-19T00:38:43;21.20;77.60
5868;DHT22;2960;49.142;7.768;2022-08-19T00:41:13;21.20;77.60
5868;DHT22;2960;49.142;7.768;2022-08-19T00:43:41;21.20;77.70
5868;DHT22;2960;49.142;7.768;2022-08-19T00:46:09;21.10;77.60
5868;DHT22;2960;49.142;7.768;2022-08-19T00:48:36;21.10;77.70
5868;DHT22;2960;49.142;7.768;2022-08-19T00:51:04;21.10;77.70
5868;DHT22;2960;49.142;7.768;2022-08-19T00:53:32;21.10;77.70
5868;DHT22;2960;49.142;7.768;2022-08-19T00:56:02;21.10;77.80
5868;DHT22;2960;49.142;7.768;2022-08-19T00:58:34;21.00;77.70
5868;DHT22;2960;49.142;7.768;2022-08-19T01:01:03;21.00;77.80
5868;DHT22;2960;49.142;7.768;2022-08-19T01:03:33;21.00;78.00
5868;DHT22;2960;49.142;7.768;2022-08-19T01:06:00;21.00;78.00
5868;DHT22;2960;49.142;7.768;2022-08-19T01:08:28;21.00;78.10
5868;DHT22;2960;49.142;7.768;2022-08-19T01:10:58;21.00;78.10
5868;DHT22;2960;49.142;7.768;2022-08-19T01:13:30;21.00;78.10
5868;DHT22;2960;49.142;7.768;2022-08-19T01:16:01;20.90;78.00
5868;DHT22;2960;49.142;7.768;2022-08-19T01:18:31;20.90;78.10
5868;DHT22;2960;49.142;7.768;2022-08-19T01:21:05;20.90;78.10
5868;DHT22;2960;49.142;7.768;2022-08-19T01:23:37;20.80;78.20
5868;DHT22;2960;49.142;7.768;2022-08-19T01:26:13;20.80;78.40
5868;DHT22;2960;49.142;7.768;2022-08-19T01:28:51;20.70;78.40
5868;DHT22;2960;49.142;7.768;2022-08-19T01:31:21;20.70;78.50
5868;DHT22;2960;49.142;7.768;2022-08-19T01:33:51;20.70;78.60
5868;DHT22;2960;49.142;7.768;2022-08-19T01:36:24;20.70;78.60
5868;DHT22;2960;49.142;7.768;2022-08-19T01:38:53;20.70;78.70
5868;DHT22;2960;49.142;7.768;2022-08-19T01:41:21;20.60;78.70
5868;DHT22;2960;49.142;7.768;2022-08-19T01:43:49;20.60;78.70
5868;DHT22;2960;49.142;7.768;2022-08-19T01:46:16;20.60;78.70
5868;DHT22;2960;49.142;7.768;2022-08-19T01:48:45;20.60;78.70
5868;DHT22;2960;49.142;7.768;2022-08-19T01:51:13;20.60;78.60
5868;DHT22;2960;49.142;7.768;2022-08-19T01:53:41;20.60;78.60
5868;DHT22;2960;49.142;7.768;2022-08-19T01:56:10;20.60;78.60
5868;DHT22;2960;49.142;7.768;2022-08-19T01:58:43;20.60;78.60
5868;DHT22;2960;49.142;7.768;2022-08-19T02:01:13;20.60;78.50
5868;DHT22;2960;49.142;7.768;2022-08-19T02:03:40;20.60;78.50
5868;DHT22;2960;49.142;7.768;2022-08-19T02:06:07;20.60;78.50
5868;DHT22;2960;49.142;7.768;2022-08-19T02:08:36;20.60;78.50
5868;DHT22;2960;49.142;7.768;2022-08-19T02:11:05;20.60;78.50
5868;DHT22;2960;49.142;7.768;2022-08-19T02:13:34;20.60;78.50
5868;DHT22;2960;49.142;7.768;2022-08-19T02:16:02;20.50;78.50
5868;DHT22;2960;49.142;7.768;2022-08-19T02:18:29;20.50;78.50
5868;DHT22;2960;49.142;7.768;2022-08-19T02:20:57;20.50;78.50
5868;DHT22;2960;49.142;7.768;2022-08-19T02:23:24;20.50;78.70
5868;DHT22;2960;49.142;7.768;2022-08-19T02:25:51;20.60;78.60
5868;DHT22;2960;49.142;7.768;2022-08-19T02:28:18;20.50;78.50
5868;DHT22;2960;49.142;7.768;2022-08-19T02:30:47;20.50;78.50
5868;DHT22;2960;49.142;7.768;2022-08-19T02:33:15;20.50;78.50
5868;DHT22;2960;49.142;7.768;2022-08-19T02:35:42;20.50;78.50
5868;DHT22;2960;49.142;7.768;2022-08-19T02:38:10;20.50;78.50
5868;DHT22;2960;49.142;7.768;2022-08-19T02:40:55;20.50;78.40
5868;DHT22;2960;49.142;7.768;2022-08-19T02:43:27;20.50;78.50
5868;DHT22;2960;49.142;7.768;2022-08-19T02:45:57;20.50;78.50
5868;DHT22;2960;49.142;7.768;2022-08-19T02:48:25;20.40;78.40
5868;DHT22;2960;49.142;7.768;2022-08-19T02:50:53;20.50;78.50
5868;DHT22;2960;49.142;7.768;2022-08-19T02:53:22;20.40;78.40
5868;DHT22;2960;49.142;7.768;2022-08-19T02:55:50;20.40;78.40
5868;DHT22;2960;49.142;7.768;2022-08-19T02:58:17;20.40;78.40
5868;DHT22;2960;49.142;7.768;2022-08-19T03:00:47;20.40;78.40
5868;DHT22;2960;49.142;7.768;2022-08-19T03:03:17;20.40;78.30
5868;DHT22;2960;49.142;7.768;2022-08-19T03:05:45;20.40;78.30
5868;DHT22;2960;49.142;7.768;2022-08-19T03:08:13;20.40;78.30
5868;DHT22;2960;49.142;7.768;2022-08-19T03:10:42;20.40;78.30
5868;DHT22;2960;49.142;7.768;2022-08-19T03:13:11;20.30;78.30
5868;DHT22;2960;49.142;7.768;2022-08-19T03:15:41;20.30;78.30
5868;DHT22;2960;49.142;7.768;2022-08-19T03:18:09;20.30;78.40
5868;DHT22;2960;49.142;7.768;2022-08-19T03:20:42;20.30;78.50
5868;DHT22;2960;49.142;7.768;2022-08-19T03:23:10;20.30;78.50
5868;DHT22;2960;49.142;7.768;2022-08-19T03:25:40;20.30;78.50
5868;DHT22;2960;49.142;7.768;2022-08-19T03:28:09;20.30;78.50
5868;DHT22;2960;49.142;7.768;2022-08-19T03:30:37;20.30;79.30
5868;DHT22;2960;49.142;7.768;2022-08-19T03:33:06;20.30;78.50
5868;DHT22;2960;49.142;7.768;2022-08-19T03:35:33;20.20;79.10
5868;DHT22;2960;49.142;7.768;2022-08-19T03:38:03;20.20;78.30
5868;DHT22;2960;49.142;7.768;2022-08-19T03:40:31;20.20;78.30
5868;DHT22;2960;49.142;7.768;2022-08-19T03:43:00;20.20;78.30
5868;DHT22;2960;49.142;7.768;2022-08-19T03:45:27;20.20;78.40
5868;DHT22;2960;49.142;7.768;2022-08-19T03:47:55;20.20;78.50
5868;DHT22;2960;49.142;7.768;2022-08-19T03:50:22;20.10;78.50
5868;DHT22;2960;49.142;7.768;2022-08-19T03:52:50;20.10;78.60
5868;DHT22;2960;49.142;7.768;2022-08-19T03:55:19;20.10;78.60
5868;DHT22;2960;49.142;7.768;2022-08-19T03:57:46;20.10;78.60
5868;DHT22;2960;49.142;7.768;2022-08-19T04:00:15;20.00;78.60
5868;DHT22;2960;49.142;7.768;2022-08-19T04:02:43;20.00;78.60
5868;DHT22;2960;49.142;7.768;2022-08-19T04:05:10;20.00;78.60
5868;DHT22;2960;49.142;7.768;2022-08-19T04:07:39;20.00;78.60
5868;DHT22;2960;49.142;7.768;2022-08-19T04:10:07;20.00;78.60
5868;DHT22;2960;49.142;7.768;2022-08-19T04:12:36;19.90;78.50
5868;DHT22;2960;49.142;7.768;2022-08-19T04:15:03;19.90;78.50
5868;DHT22;2960;49.142;7.768;2022-08-19T04:17:31;19.90;78.50
5868;DHT22;2960;49.142;7.768;2022-08-19T04:19:59;19.90;78.50
5868;DHT22;2960;49.142;7.768;2022-08-19T04:22:26;19.90;78.50
5868;DHT22;2960;49.142;7.768;2022-08-19T04:24:54;19.90;78.40
5868;DHT22;2960;49.142;7.768;2022-08-19T04:27:21;19.80;78.30
5868;DHT22;2960;49.142;7.768;2022-08-19T04:29:49;19.80;78.30
5868;DHT22;2960;49.142;7.768;2022-08-19T04:32:17;19.80;78.30
5868;DHT22;2960;49.142;7.768;2022-08-19T04:34:45;19.80;78.30
5868;DHT22;2960;49.142;7.768;2022-08-19T04:37:12;19.70;78.30
5868;DHT22;2960;49.142;7.768;2022-08-19T04:39:39;19.70;78.40
5868;DHT22;2960;49.142;7.768;2022-08-19T04:42:24;19.60;78.40
5868;DHT22;2960;49.142;7.768;2022-08-19T04:45:11;19.60;78.50
5868;DHT22;2960;49.142;7.768;2022-08-19T04:47:40;19.60;78.60
5868;DHT22;2960;49.142;7.768;2022-08-19T04:50:09;19.60;78.50
5868;DHT22;2960;49.142;7.768;2022-08-19T04:52:37;19.60;78.50
5868;DHT22;2960;49.142;7.768;2022-08-19T04:55:08;19.60;78.50
5868;DHT22;2960;49.142;7.768;2022-08-19T04:57:36;19.60;78.50
5868;DHT22;2960;49.142;7.768;2022-08-19T05:00:08;19.60;78.50
5868;DHT22;2960;49.142;7.768;2022-08-19T05:02:37;19.60;79.20
5868;DHT22;2960;49.142;7.768;2022-08-19T05:05:05;19.60;78.50
5868;DHT22;2960;49.142;7.768;2022-08-19T05:07:32;19.60;78.40
5868;DHT22;2960;49.142;7.768;2022-08-19T05:10:00;19.70;78.40
5868;DHT22;2960;49.142;7.768;2022-08-19T05:12:27;19.70;78.30
5868;DHT22;2960;49.142;7.768;2022-08-19T05:14:55;19.70;78.30
5868;DHT22;2960;49.142;7.768;2022-08-19T05:17:24;19.70;78.20
5868;DHT22;2960;49.142;7.768;2022-08-19T05:19:52;19.80;78.30
5868;DHT22;2960;49.142;7.768;2022-08-19T05:22:37;19.80;78.20
5868;DHT22;2960;49.142;7.768;2022-08-19T05:25:07;19.80;78.10
5868;DHT22;2960;49.142;7.768;2022-08-19T05:27:35;19.80;78.20
5868;DHT22;2960;49.142;7.768;2022-08-19T05:30:04;19.80;78.30
5868;DHT22;2960;49.142;7.768;2022-08-19T05:32:34;19.80;78.40
5868;DHT22;2960;49.142;7.768;2022-08-19T05:35:01;19.90;78.60
5868;DHT22;2960;49.142;7.768;2022-08-19T05:37:29;19.80;78.50
5868;DHT22;2960;49.142;7.768;2022-08-19T05:39:56;19.90;78.60
5868;DHT22;2960;49.142;7.768;2022-08-19T05:42:23;20.00;78.60
5868;DHT22;2960;49.142;7.768;2022-08-19T05:44:51;20.00;78.50
5868;DHT22;2960;49.142;7.768;2022-08-19T05:47:19;20.00;78.50
5868;DHT22;2960;49.142;7.768;2022-08-19T05:49:48;20.00;78.40
5868;DHT22;2960;49.142;7.768;2022-08-19T05:52:17;20.10;78.60
5868;DHT22;2960;49.142;7.768;2022-08-19T05:54:45;20.10;78.60
5868;DHT22;2960;49.142;7.768;2022-08-19T05:57:13;20.10;78.60
5868;DHT22;2960;49.142;7.768;2022-08-19T05:59:41;20.20;78.70
5868;DHT22;2960;49.142;7.768;2022-08-19T06:02:09;20.20;78.60
5868;DHT22;2960;49.142;7.768;2022-08-19T06:04:39;20.20;78.70
5868;DHT22;2960;49.142;7.768;2022-08-19T06:07:09;20.30;78.70
5868;DHT22;2960;49.142;7.768;2022-08-19T06:09:37;20.30;78.70
5868;DHT22;2960;49.142;7.768;2022-08-19T06:12:04;20.30;78.70
5868;DHT22;2960;49.142;7.768;2022-08-19T06:14:33;20.40;78.70
5868;DHT22;2960;49.142;7.768;2022-08-19T06:17:02;20.40;78.70
5868;DHT22;2960;49.142;7.768;2022-08-19T06:19:30;20.40;78.60
5868;DHT22;2960;49.142;7.768;2022-08-19T06:21:58;20.50;78.70
5868;DHT22;2960;49.142;7.768;2022-08-19T06:24:28;20.50;78.70
5868;DHT22;2960;49.142;7.768;2022-08-19T06:26:58;20.50;78.60
5868;DHT22;2960;49.142;7.768;2022-08-19T06:29:26;20.60;78.70
5868;DHT22;2960;49.142;7.768;2022-08-19T06:31:56;20.60;78.60
5868;DHT22;2960;49.142;7.768;2022-08-19T06:34:25;20.70;78.70
5868;DHT22;2960;49.142;7.768;2022-08-19T06:36:55;20.70;78.70
5868;DHT22;2960;49.142;7.768;2022-08-19T06:39:28;20.70;78.60
5868;DHT22;2960;49.142;7.768;2022-08-19T06:42:00;20.80;78.70
5868;DHT22;2960;49.142;7.768;2022-08-19T06:44:30;20.80;78.60
5868;DHT22;2960;49.142;7.768;2022-08-19T06:47:01;20.80;78.60
5868;DHT22;2960;49.142;7.768;2022-08-19T06:49:29;20.90;78.60
5868;DHT22;2960;49.142;7.768;2022-08-19T06:51:58;20.90;78.50
5868;DHT22;2960;49.142;7.768;2022-08-19T06:54:27;20.90;78.50
5868;DHT22;2960;49.142;7.768;2022-08-19T06:56:56;21.00;78.40
5868;DHT22;2960;49.142;7.768;2022-08-19T06:59:24;21.00;78.30
5868;DHT22;2960;49.142;7.768;2022-08-19T07:01:54;21.00;78.20
5868;DHT22;2960;49.142;7.768;2022-08-19T07:04:24;21.00;78.10
5868;DHT22;2960;49.142;7.768;2022-08-19T07:06:58;21.10;78.00
5868;DHT22;2960;49.142;7.768;2022-08-19T07:09:28;21.10;77.90
5868;DHT22;2960;49.142;7.768;2022-08-19T07:11:56;21.10;77.80
5868;DHT22;2960;49.142;7.768;2022-08-19T07:14:25;21.10;77.70
5868;DHT22;2960;49.142;7.768;2022-08-19T07:16:55;21.20;77.80
5868;DHT22;2960;49.142;7.768;2022-08-19T07:19:25;21.20;77.70
5868;DHT22;2960;49.142;7.768;2022-08-19T07:21:53;21.20;77.70
5868;DHT22;2960;49.142;7.768;2022-08-19T07:24:23;21.20;77.60
5868;DHT22;2960;49.142;7.768;2022-08-19T07:26:54;21.20;77.60
5868;DHT22;2960;49.142;7.768;2022-08-19T07:29:29;21.30;77.70
5868;DHT22;2960;49.142;7.768;2022-08-19T07:31:59;21.30;77.70
5868;DHT22;2960;49.142;7.768;2022-08-19T07:34:29;21.30;77.70
5868;DHT22;2960;49.142;7.768;2022-08-19T07:36:58;21.40;77.70
5868;DHT22;2960;49.142;7.768;2022-08-19T07:39:31;21.40;77.60
5868;DHT22;2960;49.142;7.768;2022-08-19T07:42:03;21.50;77.80
5868;DHT22;2960;49.142;7.768;2022-08-19T07:44:33;21.50;77.70
5868;DHT22;2960;49.142;7.768;2022-08-19T07:47:00;21.50;77.60
5868;DHT22;2960;49.142;7.768;2022-08-19T07:49:28;21.60;77.70
5868;DHT22;2960;49.142;7.768;2022-08-19T07:51:57;21.60;77.70
5868;DHT22;2960;49.142;7.768;2022-08-19T07:54:28;21.70;77.70
5868;DHT22;2960;49.142;7.768;2022-08-19T07:56:57;21.70;77.60
5868;DHT22;2960;49.142;7.768;2022-08-19T07:59:26;21.70;77.50
5868;DHT22;2960;49.142;7.768;2022-08-19T08:01:54;21.80;77.50
5868;DHT22;2960;49.142;7.768;2022-08-19T08:04:21;21.80;77.40
5868;DHT22;2960;49.142;7.768;2022-08-19T08:07:06;21.90;77.60
5868;DHT22;2960;49.142;7.768;2022-08-19T08:09:59;21.90;77.50
5868;DHT22;2960;49.142;7.768;2022-08-19T08:12:30;22.00;77.70
5868;DHT22;2960;49.142;7.768;2022-08-19T08:15:03;22.00;77.70
5868;DHT22;2960;49.142;7.768;2022-08-19T08:17:33;22.10;77.60
5868;DHT22;2960;49.142;7.768;2022-08-19T08:20:02;22.20;77.40
5868;DHT22;2960;49.142;7.768;2022-08-19T08:22:32;22.20;77.10
5868;DHT22;2960;49.142;7.768;2022-08-19T08:25:23;22.30;77.10
5868;DHT22;2960;49.142;7.768;2022-08-19T08:27:50;22.40;76.80
5868;DHT22;2960;49.142;7.768;2022-08-19T08:30:20;22.40;76.60
5868;DHT22;2960;49.142;7.768;2022-08-19T08:32:50;22.50;76.40
5868;DHT22;2960;49.142;7.768;2022-08-19T08:35:20;22.60;76.20
5868;DHT22;2960;49.142;7.768;2022-08-19T08:37:49;22.60;75.80
5868;DHT22;2960;49.142;7.768;2022-08-19T08:40:22;22.70;75.70
5868;DHT22;2960;49.142;7.768;2022-08-19T08:42:57;22.80;75.50
5868;DHT22;2960;49.142;7.768;2022-08-19T08:45:29;22.80;75.30
5868;DHT22;2960;49.142;7.768;2022-08-19T08:48:00;22.90;75.00
5868;DHT22;2960;49.142;7.768;2022-08-19T08:50:33;23.00;74.90
5868;DHT22;2960;49.142;7.768;2022-08-19T08:53:04;23.10;75.00
5868;DHT22;2960;49.142;7.768;2022-08-19T08:55:34;23.10;74.90
5868;DHT22;2960;49.142;7.768;2022-08-19T08:58:04;23.20;74.80
5868;DHT22;2960;49.142;7.768;2022-08-19T09:00:37;23.30;74.80
5868;DHT22;2960;49.142;7.768;2022-08-19T09:03:12;23.40;74.70
5868;DHT22;2960;49.142;7.768;2022-08-19T09:05:56;23.40;74.30
5868;DHT22;2960;49.142;7.768;2022-08-19T09:08:36;23.50;74.10
5868;DHT22;2960;49.142;7.768;2022-08-19T09:11:09;23.50;74.00
5868;DHT22;2960;49.142;7.768;2022-08-19T09:13:51;23.60;73.90
5868;DHT22;2960;49.142;7.768;2022-08-19T09:16:27;23.70;73.30
5868;DHT22;2960;49.142;7.768;2022-08-19T09:18:57;23.80;73.10
5868;DHT22;2960;49.142;7.768;2022-08-19T09:21:31;23.80;72.60
5868;DHT22;2960;49.142;7.768;2022-08-19T09:23:58;24.00;72.50
5868;DHT22;2960;49.142;7.768;2022-08-19T09:26:26;24.10;72.10
5868;DHT22;2960;49.142;7.768;2022-08-19T09:28:55;24.20;70.60
5868;DHT22;2960;49.142;7.768;2022-08-19T09:31:28;24.40;70.30
5868;DHT22;2960;49.142;7.768;2022-08-19T09:33:58;24.60;69.40
5868;DHT22;2960;49.142;7.768;2022-08-19T09:36:27;24.80;68.00
5868;DHT22;2960;49.142;7.768;2022-08-19T09:38:58;25.00;67.70
5868;DHT22;2960;49.142;7.768;2022-08-19T09:41:27;25.10;66.40
5868;DHT22;2960;49.142;7.768;2022-08-19T09:43:55;25.10;66.20
5868;DHT22;2960;49.142;7.768;2022-08-19T09:46:25;25.20;65.80
5868;DHT22;2960;49.142;7.768;2022-08-19T09:48:57;25.30;65.00
5868;DHT22;2960;49.142;7.768;2022-08-19T09:51:27;25.30;64.90
5868;DHT22;2960;49.142;7.768;2022-08-19T09:53:58;25.30;64.60
5868;DHT22;2960;49.142;7.768;2022-08-19T09:56:26;25.40;64.10
5868;DHT22;2960;49.142;7.768;2022-08-19T09:58:54;25.50;64.30
5868;DHT22;2960;49.142;7.768;2022-08-19T10:01:24;25.60;64.10
5868;DHT22;2960;49.142;7.768;2022-08-19T10:03:56;25.80;63.40
5868;DHT22;2960;49.142;7.768;2022-08-19T10:06:27;25.90;63.40
5868;DHT22;2960;49.142;7.768;2022-08-19T10:08:58;26.10;62.40
5868;DHT22;2960;49.142;7.768;2022-08-19T10:11:26;26.20;61.10
5868;DHT22;2960;49.142;7.768;2022-08-19T10:13:54;26.30;60.70
5868;DHT22;2960;49.142;7.768;2022-08-19T10:16:23;26.40;59.80
5868;DHT22;2960;49.142;7.768;2022-08-19T10:18:51;26.40;59.40
5868;DHT22;2960;49.142;7.768;2022-08-19T10:21:22;26.50;58.90
5868;DHT22;2960;49.142;7.768;2022-08-19T10:23:53;26.60;58.60
5868;DHT22;2960;49.142;7.768;2022-08-19T10:26:23;26.60;58.50
5868;DHT22;2960;49.142;7.768;2022-08-19T10:28:52;26.60;58.10
5868;DHT22;2960;49.142;7.768;2022-08-19T10:31:21;26.60;57.70
5868;DHT22;2960;49.142;7.768;2022-08-19T10:33:55;26.60;57.20
5868;DHT22;2960;49.142;7.768;2022-08-19T10:36:27;26.50;55.80
5868;DHT22;2960;49.142;7.768;2022-08-19T10:38:59;26.50;56.40
5868;DHT22;2960;49.142;7.768;2022-08-19T10:41:31;26.50;56.80
5868;DHT22;2960;49.142;7.768;2022-08-19T10:44:02;26.60;56.90
5868;DHT22;2960;49.142;7.768;2022-08-19T10:46:32;26.60;56.80
5868;DHT22;2960;49.142;7.768;2022-08-19T10:49:01;26.70;56.80
5868;DHT22;2960;49.142;7.768;2022-08-19T10:51:31;26.80;56.80
5868;DHT22;2960;49.142;7.768;2022-08-19T10:54:16;27.00;56.60
5868;DHT22;2960;49.142;7.768;2022-08-19T10:56:43;27.10;56.50
5868;DHT22;2960;49.142;7.768;2022-08-19T10:59:21;27.20;56.40
5868;DHT22;2960;49.142;7.768;2022-08-19T11:01:50;27.30;56.20
5868;DHT22;2960;49.142;7.768;2022-08-19T11:04:18;27.40;56.10
5868;DHT22;2960;49.142;7.768;2022-08-19T11:06:48;27.40;55.60
5868;DHT22;2960;49.142;7.768;2022-08-19T11:09:17;27.40;55.30
5868;DHT22;2960;49.142;7.768;2022-08-19T11:11:45;27.40;55.30
5868;DHT22;2960;49.142;7.768;2022-08-19T11:14:17;27.40;55.40
5868;DHT22;2960;49.142;7.768;2022-08-19T11:16:46;27.40;55.40
5868;DHT22;2960;49.142;7.768;2022-08-19T11:19:13;27.50;55.10
5868;DHT22;2960;49.142;7.768;2022-08-19T11:21:43;27.50;54.80
5868;DHT22;2960;49.142;7.768;2022-08-19T11:24:17;27.50;54.60
5868;DHT22;2960;49.142;7.768;2022-08-19T11:26:48;27.60;54.50
5868;DHT22;2960;49.142;7.768;2022-08-19T11:29:19;27.60;54.20
5868;DHT22;2960;49.142;7.768;2022-08-19T11:31:51;27.60;53.80
5868;DHT22;2960;49.142;7.768;2022-08-19T11:34:21;27.60;53.80
5868;DHT22;2960;49.142;7.768;2022-08-19T11:36:50;27.60;53.50
5868;DHT22;2960;49.142;7.768;2022-08-19T11:39:21;27.70;53.50
5868;DHT22;2960;49.142;7.768;2022-08-19T11:41:49;27.70;53.30
5868;DHT22;2960;49.142;7.768;2022-08-19T11:44:16;27.80;52.70
5868;DHT22;2960;49.142;7.768;2022-08-19T11:46:45;27.80;52.60
5868;DHT22;2960;49.142;7.768;2022-08-19T11:49:13;27.80;52.60
5868;DHT22;2960;49.142;7.768;2022-08-19T11:51:42;27.80;53.00
5868;DHT22;2960;49.142;7.768;2022-08-19T11:54:10;27.70;51.60
5868;DHT22;2960;49.142;7.768;2022-08-19T11:56:40;27.70;51.50
5868;DHT22;2960;49.142;7.768;2022-08-19T11:59:07;27.70;50.90
5868;DHT22;2960;49.142;7.768;2022-08-19T12:01:36;27.70;50.90
5868;DHT22;2960;49.142;7.768;2022-08-19T12:04:06;27.80;51.10
5868;DHT22;2960;49.142;7.768;2022-08-19T12:06:33;27.80;50.70
5868;DHT22;2960;49.142;7.768;2022-08-19T12:09:04;27.90;50.80
5868;DHT22;2960;49.142;7.768;2022-08-19T12:11:34;28.00;50.80
5868;DHT22;2960;49.142;7.768;2022-08-19T12:14:03;28.10;50.50
5868;DHT22;2960;49.142;7.768;2022-08-19T12:16:32;28.20;50.30
5868;DHT22;2960;49.142;7.768;2022-08-19T12:19:00;28.30;49.60
5868;DHT22;2960;49.142;7.768;2022-08-19T12:21:31;28.40;49.70
5868;DHT22;2960;49.142;7.768;2022-08-19T12:24:01;28.50;49.80
5868;DHT22;2960;49.142;7.768;2022-08-19T12:26:30;28.60;49.70
5868;DHT22;2960;49.142;7.768;2022-08-19T12:28:58;28.70;49.70
5868;DHT22;2960;49.142;7.768;2022-08-19T12:31:27;28.70;49.20
5868;DHT22;2960;49.142;7.768;2022-08-19T12:33:55;28.80;49.00
5868;DHT22;2960;49.142;7.768;2022-08-19T12:36:23;28.90;48.70
5868;DHT22;2960;49.142;7.768;2022-08-19T12:38:51;29.00;48.70
5868;DHT22;2960;49.142;7.768;2022-08-19T12:41:20;29.00;48.20
5868;DHT22;2960;49.142;7.768;2022-08-19T12:43:48;29.00;47.10
5868;DHT22;2960;49.142;7.768;2022-08-19T12:46:15;29.00;47.00
5868;DHT22;2960;49.142;7.768;2022-08-19T12:48:45;29.00;47.30
5868;DHT22;2960;49.142;7.768;2022-08-19T12:51:14;29.00;47.00
5868;DHT22;2960;49.142;7.768;2022-08-19T12:53:43;29.00;46.90
5868;DHT22;2960;49.142;7.768;2022-08-19T12:56:12;29.00;46.80
5868;DHT22;2960;49.142;7.768;2022-08-19T12:58:41;29.00;46.60
5868;DHT22;2960;49.142;7.768;2022-08-19T13:01:10;28.90;46.50
5868;DHT22;2960;49.142;7.768;2022-08-19T13:03:38;28.90;46.00
5868;DHT22;2960;49.142;7.768;2022-08-19T13:06:08;29.00;46.20
5868;DHT22;2960;49.142;7.768;2022-08-19T13:08:36;29.00;45.70
5868;DHT22;2960;49.142;7.768;2022-08-19T13:11:09;29.00;45.60
5868;DHT22;2960;49.142;7.768;2022-08-19T13:13:38;29.00;45.10
5868;DHT22;2960;49.142;7.768;2022-08-19T13:16:07;29.10;45.40
5868;DHT22;2960;49.142;7.768;2022-08-19T13:18:35;29.10;45.50
5868;DHT22;2960;49.142;7.768;2022-08-19T13:21:03;29.10;45.60
5868;DHT22;2960;49.142;7.768;2022-08-19T13:23:33;29.10;45.00
5868;DHT22;2960;49.142;7.768;2022-08-19T13:26:02;29.10;45.20
5868;DHT22;2960;49.142;7.768;2022-08-19T13:28:31;29.10;45.20
5868;DHT22;2960;49.142;7.768;2022-08-19T13:31:15;29.10;45.10
5868;DHT22;2960;49.142;7.768;2022-08-19T13:34:02;29.10;43.30
5868;DHT22;2960;49.142;7.768;2022-08-19T13:36:31;29.10;43.40
5868;DHT22;2960;49.142;7.768;2022-08-19T13:39:00;29.00;43.40
5868;DHT22;2960;49.142;7.768;2022-08-19T13:41:27;29.00;43.60
5868;DHT22;2960;49.142;7.768;2022-08-19T13:43:57;28.90;43.90
5868;DHT22;2960;49.142;7.768;2022-08-19T13:46:24;28.90;44.30
5868;DHT22;2960;49.142;7.768;2022-08-19T13:48:52;28.90;44.40
5868;DHT22;2960;49.142;7.768;2022-08-19T13:51:20;28.90;44.40
5868;DHT22;2960;49.142;7.768;2022-08-19T13:53:47;28.90;44.50
5868;DHT22;2960;49.142;7.768;2022-08-19T13:56:18;29.00;44.10
5868;DHT22;2960;49.142;7.768;2022-08-19T13:58:46;29.00;43.80
5868;DHT22;2960;49.142;7.768;2022-08-19T14:01:19;29.10;44.10
5868;DHT22;2960;49.142;7.768;2022-08-19T14:03:46;29.20;43.80
5868;DHT22;2960;49.142;7.768;2022-08-19T14:06:14;29.20;42.40
5868;DHT22;2960;49.142;7.768;2022-08-19T14:08:42;29.20;41.50
5868;DHT22;2960;49.142;7.768;2022-08-19T14:11:09;29.20;40.20
5868;DHT22;2960;49.142;7.768;2022-08-19T14:13:38;29.20;40.30
5868;DHT22;2960;49.142;7.768;2022-08-19T14:16:09;29.30;40.50
5868;DHT22;2960;49.142;7.768;2022-08-19T14:18:37;29.30;40.70
5868;DHT22;2960;49.142;7.768;2022-08-19T14:21:05;29.30;40.40
5868;DHT22;2960;49.142;7.768;2022-08-19T14:23:33;29.30;40.00
5868;DHT22;2960;49.142;7.768;2022-08-19T14:26:07;29.40;40.10
5868;DHT22;2960;49.142;7.768;2022-08-19T14:28:35;29.40;39.60
5868;DHT22;2960;49.142;7.768;2022-08-19T14:31:04;29.40;39.80
5868;DHT22;2960;49.142;7.768;2022-08-19T14:33:31;29.40;39.70
5868;DHT22;2960;49.142;7.768;2022-08-19T14:35:58;29.40;40.00
5868;DHT22;2960;49.142;7.768;2022-08-19T14:38:26;29.40;40.30
5868;DHT22;2960;49.142;7.768;2022-08-19T14:41:05;29.40;40.60
5868;DHT22;2960;49.142;7.768;2022-08-19T14:43:33;29.50;40.80
5868;DHT22;2960;49.142;7.768;2022-08-19T14:46:00;29.50;40.90
5868;DHT22;2960;49.142;7.768;2022-08-19T14:48:29;29.50;40.90
5868;DHT22;2960;49.142;7.768;2022-08-19T14:50:56;29.50;41.10
5868;DHT22;2960;49.142;7.768;2022-08-19T14:53:23;29.40;41.60
5868;DHT22;2960;49.142;7.768;2022-08-19T14:55:51;29.40;42.00
5868;DHT22;2960;49.142;7.768;2022-08-19T14:58:18;29.40;42.30
5868;DHT22;2960;49.142;7.768;2022-08-19T15:00:45;29.30;42.60
5868;DHT22;2960;49.142;7.768;2022-08-19T15:03:12;29.30;42.70
5868;DHT22;2960;49.142;7.768;2022-08-19T15:05:41;29.30;42.80
5868;DHT22;2960;49.142;7.768;2022-08-19T15:08:08;29.30;43.10
5868;DHT22;2960;49.142;7.768;2022-08-19T15:10:36;29.30;43.40
5868;DHT22;2960;49.142;7.768;2022-08-19T15:13:04;29.30;43.60
5868;DHT22;2960;49.142;7.768;2022-08-19T15:15:32;29.30;43.80
5868;DHT22;2960;49.142;7.768;2022-08-19T15:18:00;29.30;43.90
5868;DHT22;2960;49.142;7.768;2022-08-19T15:20:29;29.30;44.40
5868;DHT22;2960;49.142;7.768;2022-08-19T15:22:57;29.30;44.10
5868;DHT22;2960;49.142;7.768;2022-08-19T15:25:26;29.20;43.70
5868;DHT22;2960;49.142;7.768;2022-08-19T15:27:54;29.20;43.90
5868;DHT22;2960;49.142;7.768;2022-08-19T15:30:24;29.20;43.90
5868;DHT22;2960;49.142;7.768;2022-08-19T15:32:53;29.10;43.90
5868;DHT22;2960;49.142;7.768;2022-08-19T15:35:22;29.10;44.10
5868;DHT22;2960;49.142;7.768;2022-08-19T15:37:50;29.00;44.20
5868;DHT22;2960;49.142;7.768;2022-08-19T15:40:20;29.00;44.50
5868;DHT22;2960;49.142;7.768;2022-08-19T15:42:48;29.00;44.70
5868;DHT22;2960;49.142;7.768;2022-08-19T15:45:17;29.00;44.50
5868;DHT22;2960;49.142;7.768;2022-08-19T15:47:46;28.90;44.60
5868;DHT22;2960;49.142;7.768;2022-08-19T15:50:17;28.90;44.70
5868;DHT22;2960;49.142;7.768;2022-08-19T15:52:47;28.90;44.40
5868;DHT22;2960;49.142;7.768;2022-08-19T15:55:18;28.90;44.40
5868;DHT22;2960;49.142;7.768;2022-08-19T15:57:47;28.80;44.40
5868;DHT22;2960;49.142;7.768;2022-08-19T16:00:31;28.80;44.60
5868;DHT22;2960;49.142;7.768;2022-08-19T16:03:21;28.80;44.60
5868;DHT22;2960;49.142;7.768;2022-08-19T16:06:17;28.80;44.30
5868;DHT22;2960;49.142;7.768;2022-08-19T16:08:55;28.70;44.10
5868;DHT22;2960;49.142;7.768;2022-08-19T16:11:27;28.70;43.90
5868;DHT22;2960;49.142;7.768;2022-08-19T16:13:57;28.70;44.10
5868;DHT22;2960;49.142;7.768;2022-08-19T16:16:28;28.70;43.70
5868;DHT22;2960;49.142;7.768;2022-08-19T16:18:59;28.60;43.80
5868;DHT22;2960;49.142;7.768;2022-08-19T16:21:29;28.60;43.70